Weather at Blue Skies Farm Airport

Public forecast

Using degrees Fahrenheit for public forecast. Weather courtesy of forecast.io.

Closest aviation weather report (METAR) to Blue Skies Farm Airport

Closest report is Salem Municipal Airport/McNary Field, 4.8 nm (8.9 km) SW. Retrieved 2020/10/30 18:22 UTC (16 minutes ago):

KSLE 301822Z 18009KT 6SM BR FEW009 OVC028 11/09 A3015 RMK AO2 P0001 T01060089

Closest aviation forecast (TAF) to Blue Skies Farm Airport

Closest forecast is Salem Municipal Airport/McNary Field, 4.8 nm (8.9 km) SW. Retrieved 2020/10/30 18:24 UTC (14 minutes ago):

TAF KSLE 301721Z 3018/3118 18011KT 5SM -SHRA BR SCT015 OVC025 FM301930 26008KT 2SM SHRA BR BKN015 OVC025 FM302030 33008KT 5SM BR BKN025 OVC040 FM302130 30007KT P6SM VCSH SCT025 BKN040 FM302300 31004KT P6SM SCT040 FM310900 00000KT 1/2SM FG VV002